WetterOnline ( https://www.wetteronline.ch )

Wetter aktuell List auf Sylt

Aktuelles Wetter: List/Sylt (29m)

6-stündlich | Neueste Meldungen
Ortszeit Temperatur Wetter
Fr, 19.04. 8:00 7.1° C leichter Regen
Fr, 19.04. 2:00 5.5° C leichter Regen
Do, 18.04. 20:00 6.9° C bewölkt
Do, 18.04. 14:00 7.8° C bedeckt
Do, 18.04. 8:00 7.8° C leicht bewölkt
Do, 18.04. 2:00 4.8° C fast wolkenlos
Mi, 17.04. 20:00 7.1° C bedeckt
Mi, 17.04. 14:00 8.8° C leicht bewölkt
Ortszeit Temperatur Wetter
Fr, 19.04. 10:10 7.4° C bedeckt
Fr, 19.04. 10:00 7.6° C bewölkt
Fr, 19.04. 9:50 7.6° C bewölkt
Fr, 19.04. 9:40 7.6° C bewölkt
Fr, 19.04. 9:30 7.3° C leichter Regen
Fr, 19.04. 9:20 7.3° C leichter Regen
Fr, 19.04. 9:00 7.6° C leichter Regen
Fr, 19.04. 8:30 7.4° C leichter Regen
Fr, 19.04. 8:00 7.1° C leichter Regen
Fr, 19.04. 7:30 7.1° C leichter Regen
Ortszeit Relative Feuchte Sichtweite
Fr, 19.04. 8:00 93% 8 km
Fr, 19.04. 2:00 89% 11 km
Do, 18.04. 20:00 62% 50 km
Do, 18.04. 14:00 56% 45 km
Do, 18.04. 8:00 77% 65 km
Do, 18.04. 2:00 88% 50 km
Mi, 17.04. 20:00 74% 60 km
Mi, 17.04. 14:00 63% 35 km
Ortszeit Relative Feuchte Sichtweite
Fr, 19.04. 10:10 84% -
Fr, 19.04. 10:00 85% 29 km
Fr, 19.04. 9:50 85% -
Fr, 19.04. 9:40 84% -
Fr, 19.04. 9:30 89% 9 km
Fr, 19.04. 9:20 89% -
Fr, 19.04. 9:00 84% 24 km
Fr, 19.04. 8:30 85% 17 km
Fr, 19.04. 8:00 93% 8 km
Fr, 19.04. 7:30 90% 6 km
Ortszeit Niederschlagsmenge Niederschlagsart
Fr, 19.04. 8:00 7 l/m2 in 12 Std. Regen
Fr, 19.04. 2:00 2 l/m2 in 6 Std. Regen
Do, 18.04. 20:00 0.1 l/m2 in 12 Std. Regen
Do, 18.04. 14:00 0.0 l/m2 in 6 Std. -
Do, 18.04. 8:00 0.0 l/m2 in 12 Std. -
Do, 18.04. 2:00 0.0 l/m2 in 6 Std. -
Mi, 17.04. 20:00 1 l/m2 in 12 Std. Regen
Mi, 17.04. 14:00 1 l/m2 in 6 Std. Regen
Ortszeit Niederschlagsmenge Niederschlagsart
Fr, 19.04. 10:10 keine Meldung -
Fr, 19.04. 10:00 0.1 l/m2 in 1 Std. Regen
Fr, 19.04. 9:50 keine Meldung -
Fr, 19.04. 9:40 keine Meldung -
Fr, 19.04. 9:30 <0.05 l/m2 in 30 Min -
Fr, 19.04. 9:20 keine Meldung -
Fr, 19.04. 9:00 0.1 l/m2 in 1 Std. Regen
Fr, 19.04. 8:30 0.1 l/m2 in 30 Min -
Fr, 19.04. 8:00 0.1 l/m2 in 1 Std. Regen
Fr, 19.04. 7:30 <0.05 l/m2 in 30 Min -
Ortszeit Stärke Spitze Richtung
km/h Bft. km/h Grad Sektor
Fr, 19.04. 8:00 43 6 54 280° W
Fr, 19.04. 2:00 30 5 46 220° SW
Do, 18.04. 20:00 32 5 50 280° W
Do, 18.04. 14:00 26 4 44 290° W
Do, 18.04. 8:00 18 3 25 320° NW
Do, 18.04. 2:00 14 3 29 340° N
Mi, 17.04. 20:00 11 2 39 350° N
Mi, 17.04. 14:00 26 4 39 320° NW
Ortszeit Stärke Spitze Richtung
km/h Bft. km/h Grad Sektor
Fr, 19.04. 10:10 48 6 - 290° W
Fr, 19.04. 10:00 46 6 67 300° NW
Fr, 19.04. 9:50 46 6 - 300° NW
Fr, 19.04. 9:40 46 6 - 290° W
Fr, 19.04. 9:30 48 6 67 290° W
Fr, 19.04. 9:20 48 6 - 290° W
Fr, 19.04. 9:00 44 6 63 290° W
Fr, 19.04. 8:30 44 6 59 290° W
Fr, 19.04. 8:00 43 6 54 280° W
Fr, 19.04. 7:30 40 6 50 280° W
Ortszeit Untergrenze Bedeckung Gattung
total tief tief mittel hoch
Fr, 19.04. 8:00 240 m 8/8 8/8 - - -
Fr, 19.04. 2:00 360 m 7/8 7/8 - - -
Do, 18.04. 20:00 1020 m 8/8 7/8 - - -
Do, 18.04. 14:00 1020 m 8/8 8/8 - - -
Do, 18.04. 8:00 600 m 3/8 3/8 - - -
Do, 18.04. 2:00 480 m 1/8 1/8 - - -
Mi, 17.04. 20:00 1050 m 8/8 8/8 - - -
Mi, 17.04. 14:00 1260 m 7/8 1/8 - - -
Ortszeit Bedeckungsgrad in Achtel und Wolkenuntergrenze
Fr, 19.04. 10:10 8
Fr, 19.04. 10:00 1(390m) 5(570m) 7(720m)
Fr, 19.04. 9:50 1(390m) 5(570m) 7(720m)
Fr, 19.04. 9:40 7
Fr, 19.04. 9:30 2(420m) 6(600m) 8(840m)
Fr, 19.04. 9:20 2(420m) 6(600m) 8(840m)
Fr, 19.04. 9:00 3(480m) 7(630m)
Fr, 19.04. 8:30 3(600m) 7(1020m) 7(1350m)
Fr, 19.04. 8:00 5(240m) 7(750m) 8(1080m)
Fr, 19.04. 7:30 2(480m) 8(1140m) 8(5400m)
Ortszeit Luftdruck NN (hPa) Tendenz (hPa in 3 Std.)
Fr, 19.04. 8:00 999 - 2,2
Fr, 19.04. 2:00 1007 - 4,3
Do, 18.04. 20:00 1014 - 1,1
Do, 18.04. 14:00 1016 + 0,1
Do, 18.04. 8:00 1015 + 0,9
Do, 18.04. 2:00 1014 + 1,3
Mi, 17.04. 20:00 1011 + 1,2
Mi, 17.04. 14:00 1009 + 0,8
Ortszeit Luftdruck NN (hPa) Tendenz (hPa in 3 Std.)
Fr, 19.04. 10:10 998 keine Meldung
Fr, 19.04. 10:00 998 - 1,9
Fr, 19.04. 9:50 998 keine Meldung
Fr, 19.04. 9:40 998 keine Meldung
Fr, 19.04. 9:30 998 - 2,2
Fr, 19.04. 9:20 998 keine Meldung
Fr, 19.04. 9:00 998 - 2,1
Fr, 19.04. 8:30 999 - 2,1
Fr, 19.04. 8:00 999 - 2,2
Fr, 19.04. 7:30 1000 - 2,9
Ortszeit Schneehöhe (cm)
Fr, 19.04. 8:00 0
Fr, 19.04. 2:00 0
Do, 18.04. 20:00 0
Do, 18.04. 14:00 0
Do, 18.04. 8:00 0
Do, 18.04. 2:00 0
Mi, 17.04. 20:00 0
Mi, 17.04. 14:00 0
Ortszeit Schneehöhe (cm)
Fr, 19.04. 10:10 -
Fr, 19.04. 10:00 0
Fr, 19.04. 9:50 0
Fr, 19.04. 9:40 -
Fr, 19.04. 9:30 0
Fr, 19.04. 9:20 0
Fr, 19.04. 9:00 0
Fr, 19.04. 8:30 0
Fr, 19.04. 8:00 0
Fr, 19.04. 7:30 0
Link zu dieser Seite / Seite empfehlen

Das Wetter in ...